sensor_id;sensor_type;location;lat;lon;timestamp;temperature;humidity
16327;DHT22;34812;49.846;9.610;2022-10-12T00:00:55;6.80;99.90
16327;DHT22;34812;49.846;9.610;2022-10-12T00:01:56;6.80;99.90
16327;DHT22;34812;49.846;9.610;2022-10-12T00:02:57;6.80;99.90
16327;DHT22;34812;49.846;9.610;2022-10-12T00:03:58;6.80;99.90
16327;DHT22;34812;49.846;9.610;2022-10-12T00:05:00;6.80;99.90
16327;DHT22;34812;49.846;9.610;2022-10-12T00:06:02;6.80;99.90
16327;DHT22;34812;49.846;9.610;2022-10-12T00:07:05;6.70;99.90
16327;DHT22;34812;49.846;9.610;2022-10-12T00:08:06;6.70;99.90
16327;DHT22;34812;49.846;9.610;2022-10-12T00:09:07;6.70;99.90
16327;DHT22;34812;49.846;9.610;2022-10-12T00:10:08;6.70;99.90
16327;DHT22;34812;49.846;9.610;2022-10-12T00:11:12;6.70;99.90
16327;DHT22;34812;49.846;9.610;2022-10-12T00:12:13;6.70;99.90
16327;DHT22;34812;49.846;9.610;2022-10-12T00:13:15;6.70;99.90
16327;DHT22;34812;49.846;9.610;2022-10-12T00:14:16;6.70;99.90
16327;DHT22;34812;49.846;9.610;2022-10-12T00:15:19;6.70;99.90
16327;DHT22;34812;49.846;9.610;2022-10-12T00:16:21;6.70;99.90
16327;DHT22;34812;49.846;9.610;2022-10-12T00:17:23;6.60;99.90
16327;DHT22;34812;49.846;9.610;2022-10-12T00:18:24;6.60;99.90
16327;DHT22;34812;49.846;9.610;2022-10-12T00:19:26;6.60;99.90
16327;DHT22;34812;49.846;9.610;2022-10-12T00:20:27;6.60;99.90
16327;DHT22;34812;49.846;9.610;2022-10-12T00:21:29;6.60;99.90
16327;DHT22;34812;49.846;9.610;2022-10-12T00:22:30;6.60;99.90
16327;DHT22;34812;49.846;9.610;2022-10-12T00:23:32;6.50;99.90
16327;DHT22;34812;49.846;9.610;2022-10-12T00:24:33;6.50;99.90
16327;DHT22;34812;49.846;9.610;2022-10-12T00:25:36;6.50;99.90
16327;DHT22;34812;49.846;9.610;2022-10-12T00:26:37;6.50;99.90
16327;DHT22;34812;49.846;9.610;2022-10-12T00:27:38;6.50;99.90
16327;DHT22;34812;49.846;9.610;2022-10-12T00:28:39;6.50;99.90
16327;DHT22;34812;49.846;9.610;2022-10-12T00:29:41;6.50;99.90
16327;DHT22;34812;49.846;9.610;2022-10-12T00:30:43;6.40;99.90
16327;DHT22;34812;49.846;9.610;2022-10-12T00:31:45;6.40;99.90
16327;DHT22;34812;49.846;9.610;2022-10-12T00:32:46;6.40;99.90
16327;DHT22;34812;49.846;9.610;2022-10-12T00:33:48;6.40;99.90
16327;DHT22;34812;49.846;9.610;2022-10-12T00:34:48;6.40;99.90
16327;DHT22;34812;49.846;9.610;2022-10-12T00:35:50;6.40;99.90
16327;DHT22;34812;49.846;9.610;2022-10-12T00:36:54;6.40;99.90
16327;DHT22;34812;49.846;9.610;2022-10-12T00:37:56;6.40;99.90
16327;DHT22;34812;49.846;9.610;2022-10-12T00:38:58;6.40;99.90
16327;DHT22;34812;49.846;9.610;2022-10-12T00:39:59;6.40;99.90
16327;DHT22;34812;49.846;9.610;2022-10-12T00:41:00;6.40;99.90
16327;DHT22;34812;49.846;9.610;2022-10-12T00:42:02;6.40;99.90
16327;DHT22;34812;49.846;9.610;2022-10-12T00:43:03;6.40;99.90
16327;DHT22;34812;49.846;9.610;2022-10-12T00:45:46;6.40;99.90
16327;DHT22;34812;49.846;9.610;2022-10-12T00:46:47;6.40;99.90
16327;DHT22;34812;49.846;9.610;2022-10-12T00:47:49;6.40;99.90
16327;DHT22;34812;49.846;9.610;2022-10-12T00:48:55;6.40;99.90
16327;DHT22;34812;49.846;9.610;2022-10-12T00:50:01;6.40;99.90
16327;DHT22;34812;49.846;9.610;2022-10-12T00:51:03;6.40;99.90
16327;DHT22;34812;49.846;9.610;2022-10-12T00:52:09;6.40;99.90
16327;DHT22;34812;49.846;9.610;2022-10-12T00:53:14;6.40;99.90
16327;DHT22;34812;49.846;9.610;2022-10-12T00:54:20;6.40;99.90
16327;DHT22;34812;49.846;9.610;2022-10-12T00:55:23;6.40;99.90
16327;DHT22;34812;49.846;9.610;2022-10-12T00:56:27;6.40;99.90
16327;DHT22;34812;49.846;9.610;2022-10-12T00:57:28;6.40;99.90
16327;DHT22;34812;49.846;9.610;2022-10-12T00:58:30;6.40;99.90
16327;DHT22;34812;49.846;9.610;2022-10-12T00:59:35;6.50;99.90
16327;DHT22;34812;49.846;9.610;2022-10-12T01:00:39;6.50;99.90
16327;DHT22;34812;49.846;9.610;2022-10-12T01:01:42;6.50;99.90
16327;DHT22;34812;49.846;9.610;2022-10-12T01:02:46;6.50;99.90
16327;DHT22;34812;49.846;9.610;2022-10-12T01:03:48;6.50;99.90
16327;DHT22;34812;49.846;9.610;2022-10-12T01:04:49;6.60;99.90
16327;DHT22;34812;49.846;9.610;2022-10-12T01:05:51;6.60;99.90
16327;DHT22;34812;49.846;9.610;2022-10-12T01:06:52;6.60;99.90
16327;DHT22;34812;49.846;9.610;2022-10-12T01:07:54;6.60;99.90
16327;DHT22;34812;49.846;9.610;2022-10-12T01:08:55;6.60;99.90
16327;DHT22;34812;49.846;9.610;2022-10-12T01:09:57;6.60;99.90
16327;DHT22;34812;49.846;9.610;2022-10-12T01:10:58;6.70;99.90
16327;DHT22;34812;49.846;9.610;2022-10-12T01:12:00;6.70;99.90
16327;DHT22;34812;49.846;9.610;2022-10-12T01:13:03;6.70;99.90
16327;DHT22;34812;49.846;9.610;2022-10-12T01:14:05;6.70;99.90
16327;DHT22;34812;49.846;9.610;2022-10-12T01:15:07;6.70;99.90
16327;DHT22;34812;49.846;9.610;2022-10-12T01:16:13;6.70;99.90
16327;DHT22;34812;49.846;9.610;2022-10-12T01:17:27;6.70;99.90
16327;DHT22;34812;49.846;9.610;2022-10-12T01:18:37;6.70;99.90
16327;DHT22;34812;49.846;9.610;2022-10-12T01:19:56;6.70;99.90
16327;DHT22;34812;49.846;9.610;2022-10-12T01:21:08;6.70;99.90
16327;DHT22;34812;49.846;9.610;2022-10-12T01:22:14;6.70;99.90
16327;DHT22;34812;49.846;9.610;2022-10-12T01:23:45;6.70;99.90
16327;DHT22;34812;49.846;9.610;2022-10-12T01:24:51;6.70;99.90
16327;DHT22;34812;49.846;9.610;2022-10-12T01:27:38;6.70;99.90
16327;DHT22;34812;49.846;9.610;2022-10-12T01:28:47;6.70;99.90
16327;DHT22;34812;49.846;9.610;2022-10-12T01:30:17;6.70;99.90
16327;DHT22;34812;49.846;9.610;2022-10-12T01:31:23;6.60;99.90
16327;DHT22;34812;49.846;9.610;2022-10-12T01:32:30;6.60;99.90
16327;DHT22;34812;49.846;9.610;2022-10-12T01:33:36;6.50;99.90
16327;DHT22;34812;49.846;9.610;2022-10-12T01:34:43;6.50;99.90
16327;DHT22;34812;49.846;9.610;2022-10-12T01:35:51;6.50;99.90
16327;DHT22;34812;49.846;9.610;2022-10-12T01:36:56;6.50;99.90
16327;DHT22;34812;49.846;9.610;2022-10-12T01:38:06;6.50;99.90
16327;DHT22;34812;49.846;9.610;2022-10-12T01:39:15;6.50;99.90
16327;DHT22;34812;49.846;9.610;2022-10-12T01:40:22;6.40;99.90
16327;DHT22;34812;49.846;9.610;2022-10-12T01:41:29;6.40;99.90
16327;DHT22;34812;49.846;9.610;2022-10-12T01:42:36;6.40;99.90
16327;DHT22;34812;49.846;9.610;2022-10-12T01:43:41;6.30;99.90
16327;DHT22;34812;49.846;9.610;2022-10-12T01:44:42;6.30;99.90
16327;DHT22;34812;49.846;9.610;2022-10-12T01:45:45;6.30;99.90
16327;DHT22;34812;49.846;9.610;2022-10-12T01:46:46;6.20;99.90
16327;DHT22;34812;49.846;9.610;2022-10-12T01:47:49;6.20;99.90
16327;DHT22;34812;49.846;9.610;2022-10-12T01:48:54;6.20;99.90
16327;DHT22;34812;49.846;9.610;2022-10-12T01:49:56;6.20;99.90
16327;DHT22;34812;49.846;9.610;2022-10-12T01:51:01;6.20;99.90
16327;DHT22;34812;49.846;9.610;2022-10-12T01:52:26;6.20;99.90
16327;DHT22;34812;49.846;9.610;2022-10-12T01:53:32;6.20;99.90
16327;DHT22;34812;49.846;9.610;2022-10-12T01:54:44;6.20;99.90
16327;DHT22;34812;49.846;9.610;2022-10-12T01:55:53;6.10;99.90
16327;DHT22;34812;49.846;9.610;2022-10-12T01:56:58;6.10;99.90
16327;DHT22;34812;49.846;9.610;2022-10-12T01:58:16;6.10;99.90
16327;DHT22;34812;49.846;9.610;2022-10-12T01:59:29;6.10;99.90
16327;DHT22;34812;49.846;9.610;2022-10-12T02:00:34;6.10;99.90
16327;DHT22;34812;49.846;9.610;2022-10-12T02:01:43;6.10;99.90
16327;DHT22;34812;49.846;9.610;2022-10-12T02:02:51;6.10;99.90
16327;DHT22;34812;49.846;9.610;2022-10-12T02:04:00;6.10;99.90
16327;DHT22;34812;49.846;9.610;2022-10-12T02:05:04;6.10;99.90
16327;DHT22;34812;49.846;9.610;2022-10-12T02:06:15;6.10;99.90
16327;DHT22;34812;49.846;9.610;2022-10-12T02:07:21;6.10;99.90
16327;DHT22;34812;49.846;9.610;2022-10-12T02:08:27;6.10;99.90
16327;DHT22;34812;49.846;9.610;2022-10-12T02:09:33;6.00;99.90
16327;DHT22;34812;49.846;9.610;2022-10-12T02:10:39;6.00;99.90
16327;DHT22;34812;49.846;9.610;2022-10-12T02:11:42;6.00;99.90
16327;DHT22;34812;49.846;9.610;2022-10-12T02:12:46;6.00;99.90
16327;DHT22;34812;49.846;9.610;2022-10-12T02:13:51;6.00;99.90
16327;DHT22;34812;49.846;9.610;2022-10-12T02:14:57;6.00;99.90
16327;DHT22;34812;49.846;9.610;2022-10-12T02:16:03;6.00;99.90
16327;DHT22;34812;49.846;9.610;2022-10-12T02:17:09;6.00;99.90
16327;DHT22;34812;49.846;9.610;2022-10-12T02:18:16;6.00;99.90
16327;DHT22;34812;49.846;9.610;2022-10-12T02:19:20;5.90;99.90
16327;DHT22;34812;49.846;9.610;2022-10-12T02:20:24;5.90;99.90
16327;DHT22;34812;49.846;9.610;2022-10-12T02:21:29;5.90;99.90
16327;DHT22;34812;49.846;9.610;2022-10-12T02:22:33;5.90;99.90
16327;DHT22;34812;49.846;9.610;2022-10-12T02:23:36;5.90;99.90
16327;DHT22;34812;49.846;9.610;2022-10-12T02:24:40;5.90;99.90
16327;DHT22;34812;49.846;9.610;2022-10-12T02:25:42;5.90;99.90
16327;DHT22;34812;49.846;9.610;2022-10-12T02:26:46;5.90;99.90
16327;DHT22;34812;49.846;9.610;2022-10-12T02:27:52;5.90;99.90
16327;DHT22;34812;49.846;9.610;2022-10-12T02:28:57;5.90;99.90
16327;DHT22;34812;49.846;9.610;2022-10-12T02:30:00;5.90;99.90
16327;DHT22;34812;49.846;9.610;2022-10-12T02:31:08;5.90;99.90
16327;DHT22;34812;49.846;9.610;2022-10-12T02:32:16;5.80;99.90
16327;DHT22;34812;49.846;9.610;2022-10-12T02:33:23;5.90;99.90
16327;DHT22;34812;49.846;9.610;2022-10-12T02:34:28;5.90;99.90
16327;DHT22;34812;49.846;9.610;2022-10-12T02:35:36;5.80;99.90
16327;DHT22;34812;49.846;9.610;2022-10-12T02:36:43;5.90;99.90
16327;DHT22;34812;49.846;9.610;2022-10-12T02:37:48;5.80;99.90
16327;DHT22;34812;49.846;9.610;2022-10-12T02:38:55;5.80;99.90
16327;DHT22;34812;49.846;9.610;2022-10-12T02:40:03;5.90;99.90
16327;DHT22;34812;49.846;9.610;2022-10-12T02:41:09;5.80;99.90
16327;DHT22;34812;49.846;9.610;2022-10-12T02:42:17;5.80;99.90
16327;DHT22;34812;49.846;9.610;2022-10-12T02:43:24;5.80;99.90
16327;DHT22;34812;49.846;9.610;2022-10-12T02:44:31;5.80;99.90
16327;DHT22;34812;49.846;9.610;2022-10-12T02:45:33;5.80;99.90
16327;DHT22;34812;49.846;9.610;2022-10-12T02:46:36;5.80;99.90
16327;DHT22;34812;49.846;9.610;2022-10-12T02:47:40;5.80;99.90
16327;DHT22;34812;49.846;9.610;2022-10-12T02:48:43;5.80;99.90
16327;DHT22;34812;49.846;9.610;2022-10-12T02:49:46;5.80;99.90
16327;DHT22;34812;49.846;9.610;2022-10-12T02:50:52;5.80;99.90
16327;DHT22;34812;49.846;9.610;2022-10-12T02:51:54;5.80;99.90
16327;DHT22;34812;49.846;9.610;2022-10-12T02:52:57;5.80;99.90
16327;DHT22;34812;49.846;9.610;2022-10-12T02:53:59;5.80;99.90
16327;DHT22;34812;49.846;9.610;2022-10-12T02:55:00;5.80;99.90
16327;DHT22;34812;49.846;9.610;2022-10-12T02:56:03;5.70;99.90
16327;DHT22;34812;49.846;9.610;2022-10-12T02:57:05;5.70;99.90
16327;DHT22;34812;49.846;9.610;2022-10-12T02:58:06;5.70;99.90
16327;DHT22;34812;49.846;9.610;2022-10-12T02:59:08;5.70;99.90
16327;DHT22;34812;49.846;9.610;2022-10-12T03:00:11;5.70;99.90
16327;DHT22;34812;49.846;9.610;2022-10-12T03:01:12;5.70;99.90
16327;DHT22;34812;49.846;9.610;2022-10-12T03:02:16;5.70;99.90
16327;DHT22;34812;49.846;9.610;2022-10-12T03:03:18;5.70;99.90
16327;DHT22;34812;49.846;9.610;2022-10-12T03:04:20;5.60;99.90
16327;DHT22;34812;49.846;9.610;2022-10-12T03:05:20;5.70;99.90
16327;DHT22;34812;49.846;9.610;2022-10-12T03:06:22;5.70;99.90
16327;DHT22;34812;49.846;9.610;2022-10-12T03:07:23;5.70;99.90
16327;DHT22;34812;49.846;9.610;2022-10-12T03:08:25;5.70;99.90
16327;DHT22;34812;49.846;9.610;2022-10-12T03:09:26;5.70;99.90
16327;DHT22;34812;49.846;9.610;2022-10-12T03:10:27;5.70;99.90
16327;DHT22;34812;49.846;9.610;2022-10-12T03:11:28;5.70;99.90
16327;DHT22;34812;49.846;9.610;2022-10-12T03:12:30;5.70;99.90
16327;DHT22;34812;49.846;9.610;2022-10-12T03:13:31;5.70;99.90
16327;DHT22;34812;49.846;9.610;2022-10-12T03:14:32;5.70;99.90
16327;DHT22;34812;49.846;9.610;2022-10-12T03:15:34;5.70;99.90
16327;DHT22;34812;49.846;9.610;2022-10-12T03:16:36;5.70;99.90
16327;DHT22;34812;49.846;9.610;2022-10-12T03:17:37;5.70;99.90
16327;DHT22;34812;49.846;9.610;2022-10-12T03:18:40;5.60;99.90
16327;DHT22;34812;49.846;9.610;2022-10-12T03:19:41;5.70;99.90
16327;DHT22;34812;49.846;9.610;2022-10-12T03:20:46;5.70;99.90
16327;DHT22;34812;49.846;9.610;2022-10-12T03:21:47;5.60;99.90
16327;DHT22;34812;49.846;9.610;2022-10-12T03:22:49;5.60;99.90
16327;DHT22;34812;49.846;9.610;2022-10-12T03:23:49;5.60;99.90
16327;DHT22;34812;49.846;9.610;2022-10-12T03:24:51;5.50;99.90
16327;DHT22;34812;49.846;9.610;2022-10-12T03:25:52;5.60;99.90
16327;DHT22;34812;49.846;9.610;2022-10-12T03:26:54;5.50;99.90
16327;DHT22;34812;49.846;9.610;2022-10-12T03:27:54;5.50;99.90
16327;DHT22;34812;49.846;9.610;2022-10-12T03:28:56;5.50;99.90
16327;DHT22;34812;49.846;9.610;2022-10-12T03:29:57;5.50;99.90
16327;DHT22;34812;49.846;9.610;2022-10-12T03:30:58;5.40;99.90
16327;DHT22;34812;49.846;9.610;2022-10-12T03:31:59;5.40;99.90
16327;DHT22;34812;49.846;9.610;2022-10-12T03:33:01;5.40;99.90
16327;DHT22;34812;49.846;9.610;2022-10-12T03:34:03;5.30;99.90
16327;DHT22;34812;49.846;9.610;2022-10-12T03:35:06;5.30;99.90
16327;DHT22;34812;49.846;9.610;2022-10-12T03:36:08;5.30;99.90
16327;DHT22;34812;49.846;9.610;2022-10-12T03:37:10;5.20;99.90
16327;DHT22;34812;49.846;9.610;2022-10-12T03:38:10;5.20;99.90
16327;DHT22;34812;49.846;9.610;2022-10-12T03:39:12;5.20;99.90
16327;DHT22;34812;49.846;9.610;2022-10-12T03:40:13;5.20;99.90
16327;DHT22;34812;49.846;9.610;2022-10-12T03:41:15;5.20;99.90
16327;DHT22;34812;49.846;9.610;2022-10-12T03:42:16;5.20;99.90
16327;DHT22;34812;49.846;9.610;2022-10-12T03:43:17;5.20;99.90
16327;DHT22;34812;49.846;9.610;2022-10-12T03:44:18;5.20;99.90
16327;DHT22;34812;49.846;9.610;2022-10-12T03:45:20;5.20;99.90
16327;DHT22;34812;49.846;9.610;2022-10-12T03:46:21;5.20;99.90
16327;DHT22;34812;49.846;9.610;2022-10-12T03:47:22;5.20;99.90
16327;DHT22;34812;49.846;9.610;2022-10-12T03:48:23;5.20;99.90
16327;DHT22;34812;49.846;9.610;2022-10-12T03:49:26;5.20;99.90
16327;DHT22;34812;49.846;9.610;2022-10-12T03:50:27;5.20;99.90
16327;DHT22;34812;49.846;9.610;2022-10-12T03:51:29;5.20;99.90
16327;DHT22;34812;49.846;9.610;2022-10-12T03:52:30;5.20;99.90
16327;DHT22;34812;49.846;9.610;2022-10-12T03:53:32;5.20;99.90
16327;DHT22;34812;49.846;9.610;2022-10-12T03:54:33;5.20;99.90
16327;DHT22;34812;49.846;9.610;2022-10-12T03:55:34;5.20;99.90
16327;DHT22;34812;49.846;9.610;2022-10-12T03:56:35;5.10;99.90
16327;DHT22;34812;49.846;9.610;2022-10-12T03:57:37;5.10;99.90
16327;DHT22;34812;49.846;9.610;2022-10-12T03:58:38;5.20;99.90
16327;DHT22;34812;49.846;9.610;2022-10-12T03:59:40;5.20;99.90
16327;DHT22;34812;49.846;9.610;2022-10-12T04:00:40;5.20;99.90
16327;DHT22;34812;49.846;9.610;2022-10-12T04:01:42;5.10;99.90
16327;DHT22;34812;49.846;9.610;2022-10-12T04:02:43;5.20;99.90
16327;DHT22;34812;49.846;9.610;2022-10-12T04:03:44;5.20;99.90
16327;DHT22;34812;49.846;9.610;2022-10-12T04:04:46;5.20;99.90
16327;DHT22;34812;49.846;9.610;2022-10-12T04:05:52;5.30;99.90
16327;DHT22;34812;49.846;9.610;2022-10-12T04:06:53;5.30;99.90
16327;DHT22;34812;49.846;9.610;2022-10-12T04:07:55;5.30;99.90
16327;DHT22;34812;49.846;9.610;2022-10-12T04:08:55;5.40;99.90
16327;DHT22;34812;49.846;9.610;2022-10-12T04:09:57;5.40;99.90
16327;DHT22;34812;49.846;9.610;2022-10-12T04:10:58;5.40;99.90
16327;DHT22;34812;49.846;9.610;2022-10-12T04:12:00;5.40;99.90
16327;DHT22;34812;49.846;9.610;2022-10-12T04:13:01;5.40;99.90
16327;DHT22;34812;49.846;9.610;2022-10-12T04:14:02;5.50;99.90
16327;DHT22;34812;49.846;9.610;2022-10-12T04:15:04;5.50;99.90
16327;DHT22;34812;49.846;9.610;2022-10-12T04:16:08;5.50;99.90
16327;DHT22;34812;49.846;9.610;2022-10-12T04:17:10;5.60;99.90
16327;DHT22;34812;49.846;9.610;2022-10-12T04:18:11;5.60;99.90
16327;DHT22;34812;49.846;9.610;2022-10-12T04:19:13;5.60;99.90
16327;DHT22;34812;49.846;9.610;2022-10-12T04:20:16;5.70;99.90
16327;DHT22;34812;49.846;9.610;2022-10-12T04:21:18;5.70;99.90
16327;DHT22;34812;49.846;9.610;2022-10-12T04:22:21;5.70;99.90
16327;DHT22;34812;49.846;9.610;2022-10-12T04:23:23;5.80;99.90
16327;DHT22;34812;49.846;9.610;2022-10-12T04:24:24;5.80;99.90
16327;DHT22;34812;49.846;9.610;2022-10-12T04:25:25;5.80;99.90
16327;DHT22;34812;49.846;9.610;2022-10-12T04:26:26;5.90;99.90
16327;DHT22;34812;49.846;9.610;2022-10-12T04:27:28;5.80;99.90
16327;DHT22;34812;49.846;9.610;2022-10-12T04:28:29;5.90;99.90
16327;DHT22;34812;49.846;9.610;2022-10-12T04:29:30;5.90;99.90
16327;DHT22;34812;49.846;9.610;2022-10-12T04:30:31;5.90;99.90
16327;DHT22;34812;49.846;9.610;2022-10-12T04:31:33;5.90;99.90
16327;DHT22;34812;49.846;9.610;2022-10-12T04:32:34;5.90;99.90
16327;DHT22;34812;49.846;9.610;2022-10-12T04:33:35;6.00;99.90
16327;DHT22;34812;49.846;9.610;2022-10-12T04:34:36;5.90;99.90
16327;DHT22;34812;49.846;9.610;2022-10-12T04:35:39;5.90;99.90
16327;DHT22;34812;49.846;9.610;2022-10-12T04:36:40;5.80;99.90
16327;DHT22;34812;49.846;9.610;2022-10-12T04:37:42;5.80;99.90
16327;DHT22;34812;49.846;9.610;2022-10-12T04:38:43;5.90;99.90
16327;DHT22;34812;49.846;9.610;2022-10-12T04:39:44;5.90;99.90
16327;DHT22;34812;49.846;9.610;2022-10-12T04:40:45;5.90;99.90
16327;DHT22;34812;49.846;9.610;2022-10-12T04:41:48;5.90;99.90
16327;DHT22;34812;49.846;9.610;2022-10-12T04:42:49;5.80;99.90
16327;DHT22;34812;49.846;9.610;2022-10-12T04:43:51;5.90;99.90
16327;DHT22;34812;49.846;9.610;2022-10-12T04:44:52;5.90;99.90
16327;DHT22;34812;49.846;9.610;2022-10-12T04:45:54;5.90;99.90
16327;DHT22;34812;49.846;9.610;2022-10-12T04:46:56;5.90;99.90
16327;DHT22;34812;49.846;9.610;2022-10-12T04:47:57;5.90;99.90
16327;DHT22;34812;49.846;9.610;2022-10-12T04:48:59;6.00;99.90
16327;DHT22;34812;49.846;9.610;2022-10-12T04:50:00;6.00;99.90
16327;DHT22;34812;49.846;9.610;2022-10-12T04:51:04;6.00;99.90
16327;DHT22;34812;49.846;9.610;2022-10-12T04:52:05;6.00;99.90
16327;DHT22;34812;49.846;9.610;2022-10-12T04:53:06;5.90;99.90
16327;DHT22;34812;49.846;9.610;2022-10-12T04:54:08;5.90;99.90
16327;DHT22;34812;49.846;9.610;2022-10-12T04:55:10;5.90;99.90
16327;DHT22;34812;49.846;9.610;2022-10-12T04:56:11;5.90;99.90
16327;DHT22;34812;49.846;9.610;2022-10-12T04:57:13;5.90;99.90
16327;DHT22;34812;49.846;9.610;2022-10-12T04:58:14;6.00;99.90
16327;DHT22;34812;49.846;9.610;2022-10-12T04:59:15;6.00;99.90
16327;DHT22;34812;49.846;9.610;2022-10-12T05:00:16;6.00;99.90
16327;DHT22;34812;49.846;9.610;2022-10-12T05:01:18;6.00;99.90
16327;DHT22;34812;49.846;9.610;2022-10-12T05:02:19;6.00;99.90
16327;DHT22;34812;49.846;9.610;2022-10-12T05:03:20;6.00;99.90
16327;DHT22;34812;49.846;9.610;2022-10-12T05:04:21;6.10;99.90
16327;DHT22;34812;49.846;9.610;2022-10-12T05:05:23;6.00;99.90
16327;DHT22;34812;49.846;9.610;2022-10-12T05:06:25;6.10;99.90
16327;DHT22;34812;49.846;9.610;2022-10-12T05:07:27;6.00;99.90
16327;DHT22;34812;49.846;9.610;2022-10-12T05:08:28;6.00;99.90
16327;DHT22;34812;49.846;9.610;2022-10-12T05:09:29;6.00;99.90
16327;DHT22;34812;49.846;9.610;2022-10-12T05:10:30;6.00;99.90
16327;DHT22;34812;49.846;9.610;2022-10-12T05:11:32;6.00;99.90
16327;DHT22;34812;49.846;9.610;2022-10-12T05:12:33;6.00;99.90
16327;DHT22;34812;49.846;9.610;2022-10-12T05:13:34;5.90;99.90
16327;DHT22;34812;49.846;9.610;2022-10-12T05:14:35;6.00;99.90
16327;DHT22;34812;49.846;9.610;2022-10-12T05:15:38;6.00;99.90
16327;DHT22;34812;49.846;9.610;2022-10-12T05:16:39;6.00;99.90
16327;DHT22;34812;49.846;9.610;2022-10-12T05:17:40;6.00;99.90
16327;DHT22;34812;49.846;9.610;2022-10-12T05:18:41;6.00;99.90
16327;DHT22;34812;49.846;9.610;2022-10-12T05:19:43;6.00;99.90
16327;DHT22;34812;49.846;9.610;2022-10-12T05:20:45;6.10;99.90
16327;DHT22;34812;49.846;9.610;2022-10-12T05:21:47;6.00;99.90
16327;DHT22;34812;49.846;9.610;2022-10-12T05:22:48;6.10;99.90
16327;DHT22;34812;49.846;9.610;2022-10-12T05:23:50;6.00;99.90
16327;DHT22;34812;49.846;9.610;2022-10-12T05:24:52;6.00;99.90
16327;DHT22;34812;49.846;9.610;2022-10-12T05:25:53;6.00;99.90
16327;DHT22;34812;49.846;9.610;2022-10-12T05:26:55;6.00;99.90
16327;DHT22;34812;49.846;9.610;2022-10-12T05:27:56;6.00;99.90
16327;DHT22;34812;49.846;9.610;2022-10-12T05:28:58;6.00;99.90
16327;DHT22;34812;49.846;9.610;2022-10-12T05:29:59;6.00;99.90
16327;DHT22;34812;49.846;9.610;2022-10-12T05:31:01;6.10;99.90
16327;DHT22;34812;49.846;9.610;2022-10-12T05:32:01;6.10;99.90
16327;DHT22;34812;49.846;9.610;2022-10-12T05:33:03;6.10;99.90
16327;DHT22;34812;49.846;9.610;2022-10-12T05:34:04;6.10;99.90
16327;DHT22;34812;49.846;9.610;2022-10-12T05:35:06;6.10;99.90
16327;DHT22;34812;49.846;9.610;2022-10-12T05:36:08;6.10;99.90
16327;DHT22;34812;49.846;9.610;2022-10-12T05:37:11;6.10;99.90
16327;DHT22;34812;49.846;9.610;2022-10-12T05:38:11;6.20;99.90
16327;DHT22;34812;49.846;9.610;2022-10-12T05:39:13;6.20;99.90
16327;DHT22;34812;49.846;9.610;2022-10-12T05:40:14;6.10;99.90
16327;DHT22;34812;49.846;9.610;2022-10-12T05:41:16;6.10;99.90
16327;DHT22;34812;49.846;9.610;2022-10-12T05:42:17;6.10;99.90
16327;DHT22;34812;49.846;9.610;2022-10-12T05:43:18;6.10;99.90
16327;DHT22;34812;49.846;9.610;2022-10-12T05:44:19;6.10;99.90
16327;DHT22;34812;49.846;9.610;2022-10-12T05:45:21;6.00;99.90
16327;DHT22;34812;49.846;9.610;2022-10-12T05:46:22;5.90;99.90
16327;DHT22;34812;49.846;9.610;2022-10-12T05:47:23;5.90;99.90
16327;DHT22;34812;49.846;9.610;2022-10-12T05:48:25;5.80;99.90
16327;DHT22;34812;49.846;9.610;2022-10-12T05:49:27;5.70;99.90
16327;DHT22;34812;49.846;9.610;2022-10-12T05:50:28;5.60;99.90
16327;DHT22;34812;49.846;9.610;2022-10-12T05:51:30;5.50;99.90
16327;DHT22;34812;49.846;9.610;2022-10-12T05:52:32;5.50;99.90
16327;DHT22;34812;49.846;9.610;2022-10-12T05:53:33;5.40;99.90
16327;DHT22;34812;49.846;9.610;2022-10-12T05:54:34;5.40;99.90
16327;DHT22;34812;49.846;9.610;2022-10-12T05:55:36;5.30;99.90
16327;DHT22;34812;49.846;9.610;2022-10-12T05:56:36;5.30;99.90
16327;DHT22;34812;49.846;9.610;2022-10-12T05:57:38;5.20;99.90
16327;DHT22;34812;49.846;9.610;2022-10-12T05:58:39;5.20;99.90
16327;DHT22;34812;49.846;9.610;2022-10-12T05:59:42;5.20;99.90
16327;DHT22;34812;49.846;9.610;2022-10-12T06:00:42;5.20;99.90
16327;DHT22;34812;49.846;9.610;2022-10-12T06:01:44;5.20;99.90
16327;DHT22;34812;49.846;9.610;2022-10-12T06:02:45;5.20;99.90
16327;DHT22;34812;49.846;9.610;2022-10-12T06:03:46;5.20;99.90
16327;DHT22;34812;49.846;9.610;2022-10-12T06:04:47;5.20;99.90
16327;DHT22;34812;49.846;9.610;2022-10-12T06:05:49;5.20;99.90
16327;DHT22;34812;49.846;9.610;2022-10-12T06:06:50;5.20;99.90
16327;DHT22;34812;49.846;9.610;2022-10-12T06:07:53;5.20;99.90
16327;DHT22;34812;49.846;9.610;2022-10-12T06:08:55;5.20;99.90
16327;DHT22;34812;49.846;9.610;2022-10-12T06:09:55;5.20;99.90
16327;DHT22;34812;49.846;9.610;2022-10-12T06:10:57;5.20;99.90
16327;DHT22;34812;49.846;9.610;2022-10-12T06:11:58;5.20;99.90
16327;DHT22;34812;49.846;9.610;2022-10-12T06:13:00;5.20;99.90
16327;DHT22;34812;49.846;9.610;2022-10-12T06:14:00;5.20;99.90
16327;DHT22;34812;49.846;9.610;2022-10-12T06:15:02;5.20;99.90
16327;DHT22;34812;49.846;9.610;2022-10-12T06:16:04;5.10;99.90
16327;DHT22;34812;49.846;9.610;2022-10-12T06:17:05;5.20;99.90
16327;DHT22;34812;49.846;9.610;2022-10-12T06:18:07;5.20;99.90
16327;DHT22;34812;49.846;9.610;2022-10-12T06:19:09;5.20;99.90
16327;DHT22;34812;49.846;9.610;2022-10-12T06:20:10;5.20;99.90
16327;DHT22;34812;49.846;9.610;2022-10-12T06:21:12;5.20;99.90
16327;DHT22;34812;49.846;9.610;2022-10-12T06:22:13;5.20;99.90
16327;DHT22;34812;49.846;9.610;2022-10-12T06:23:16;5.20;99.90
16327;DHT22;34812;49.846;9.610;2022-10-12T06:24:17;5.20;99.90
16327;DHT22;34812;49.846;9.610;2022-10-12T06:25:19;5.20;99.90
16327;DHT22;34812;49.846;9.610;2022-10-12T06:26:20;5.20;99.90
16327;DHT22;34812;49.846;9.610;2022-10-12T06:27:22;5.20;99.90
16327;DHT22;34812;49.846;9.610;2022-10-12T06:28:24;5.30;99.90
16327;DHT22;34812;49.846;9.610;2022-10-12T06:29:25;5.30;99.90
16327;DHT22;34812;49.846;9.610;2022-10-12T06:30:27;5.30;99.90
16327;DHT22;34812;49.846;9.610;2022-10-12T06:31:28;5.30;99.90
16327;DHT22;34812;49.846;9.610;2022-10-12T06:32:30;5.30;99.90
16327;DHT22;34812;49.846;9.610;2022-10-12T06:33:30;5.30;99.90
16327;DHT22;34812;49.846;9.610;2022-10-12T06:34:32;5.30;99.90
16327;DHT22;34812;49.846;9.610;2022-10-12T06:35:33;5.30;99.90
16327;DHT22;34812;49.846;9.610;2022-10-12T06:36:35;5.30;99.90
16327;DHT22;34812;49.846;9.610;2022-10-12T06:37:35;5.30;99.90
16327;DHT22;34812;49.846;9.610;2022-10-12T06:38:38;5.30;99.90
16327;DHT22;34812;49.846;9.610;2022-10-12T06:39:40;5.30;99.90
16327;DHT22;34812;49.846;9.610;2022-10-12T06:40:41;5.30;99.90
16327;DHT22;34812;49.846;9.610;2022-10-12T06:41:43;5.30;99.90
16327;DHT22;34812;49.846;9.610;2022-10-12T06:42:44;5.30;99.90
16327;DHT22;34812;49.846;9.610;2022-10-12T06:43:45;5.30;99.90
16327;DHT22;34812;49.846;9.610;2022-10-12T06:44:47;5.30;99.90
16327;DHT22;34812;49.846;9.610;2022-10-12T06:45:49;5.30;99.90
16327;DHT22;34812;49.846;9.610;2022-10-12T06:46:50;5.30;99.90